Time;durP1;ratioP1;P1;durP2;ratioP2;P2;SDS_P1;SDS_P2;PMS_P1;PMS_P2;Temp;Humidity;BMP_temperature;BMP_pressure;BME280_temperature;BME280_humidity;BME280_pressure;Samples;Min_cycle;Max_cycle;Signal;HPM_P1;HPM_P2
2023/08/14 00:01:10;;;;;;;9.02;4.28;;;;;;;;;;5074994;28;20043;-81
2023/08/14 00:03:36;;;;;;;8.07;4.18;;;;;;;;;;5084456;28;20441;-81
2023/08/14 00:06:03;;;;;;;8.48;4.30;;;;;;;;;;5094049;28;20036;-81
2023/08/14 00:08:29;;;;;;;9.30;4.10;;;;;;;;;;5059051;28;20047;-81
2023/08/14 00:10:55;;;;;;;8.27;3.95;;;;;;;;;;5094293;28;20047;-81
2023/08/14 00:13:22;;;;;;;7.70;3.20;;;;;;;;;;5100311;28;20047;-82
2023/08/14 00:15:48;;;;;;;6.68;3.60;;;;;;;;;;5086243;28;20036;-82
2023/08/14 00:18:14;;;;;;;6.65;3.30;;;;;;;;;;5110349;28;20039;-82
2023/08/14 00:20:40;;;;;;;6.70;3.40;;;;;;;;;;5084859;28;20218;-82
2023/08/14 00:23:07;;;;;;;5.70;3.00;;;;;;;;;;5095194;28;20051;-82
2023/08/14 00:25:33;;;;;;;6.28;3.30;;;;;;;;;;5095822;28;20133;-82
2023/08/14 00:27:59;;;;;;;5.60;3.50;;;;;;;;;;5093221;28;20450;-82
2023/08/14 00:30:25;;;;;;;6.63;3.10;;;;;;;;;;5074671;28;20127;-81
2023/08/14 00:32:51;;;;;;;6.25;2.97;;;;;;;;;;5073006;28;20043;-82
2023/08/14 00:35:17;;;;;;;4.32;3.00;;;;;;;;;;5092570;28;20040;-81
2023/08/14 00:37:47;;;;;;;4.68;3.05;;;;;;;;;;5109812;28;20503;-82
2023/08/14 00:40:14;;;;;;;5.28;3.22;;;;;;;;;;5111496;28;20177;-82
2023/08/14 00:42:42;;;;;;;6.03;3.20;;;;;;;;;;5111736;28;20035;-81
2023/08/14 00:45:09;;;;;;;4.85;3.03;;;;;;;;;;5112310;28;20456;-82
2023/08/14 00:47:35;;;;;;;5.35;3.25;;;;;;;;;;5113217;28;20134;-82
2023/08/14 00:50:05;;;;;;;6.40;3.45;;;;;;;;;;5105099;28;20043;-81
2023/08/14 00:52:33;;;;;;;7.15;2.95;;;;;;;;;;5078424;28;20449;-81
2023/08/14 00:55:00;;;;;;;5.82;3.10;;;;;;;;;;5110820;28;20468;-81
2023/08/14 00:57:27;;;;;;;4.35;2.80;;;;;;;;;;5094140;28;20048;-82
2023/08/14 00:59:53;;;;;;;5.60;2.80;;;;;;;;;;5113095;28;20097;-81
2023/08/14 01:02:19;;;;;;;6.70;3.22;;;;;;;;;;5076930;28;20051;-82
2023/08/14 01:04:45;;;;;;;6.93;3.10;;;;;;;;;;5110203;28;20492;-82
2023/08/14 01:07:11;;;;;;;6.20;2.90;;;;;;;;;;5094379;28;20036;-82
2023/08/14 01:09:38;;;;;;;7.07;3.22;;;;;;;;;;5092612;28;20395;-81
2023/08/14 01:12:10;;;;;;;5.30;3.05;;;;;;;;;;5074517;28;20043;-81
2023/08/14 01:14:37;;;;;;;8.05;3.40;;;;;;;;;;5108413;28;20385;-81
2023/08/14 01:17:07;;;;;;;8.00;3.40;;;;;;;;;;5114956;28;20040;-80
2023/08/14 01:19:35;;;;;;;8.80;3.40;;;;;;;;;;5102563;28;20055;-81
2023/08/14 01:22:24;;;;;;;7.65;3.13;;;;;;;;;;5083001;28;20051;-81
2023/08/14 01:25:14;;;;;;;6.53;3.13;;;;;;;;;;5063717;28;20044;-82
2023/08/14 01:27:40;;;;;;;7.43;3.30;;;;;;;;;;5098056;28;20048;-82
2023/08/14 01:30:07;;;;;;;6.95;3.30;;;;;;;;;;5089391;28;20523;-80
2023/08/14 01:32:33;;;;;;;6.07;3.17;;;;;;;;;;5110095;28;20095;-80
2023/08/14 01:34:59;;;;;;;6.25;3.10;;;;;;;;;;5099087;28;20118;-81
2023/08/14 01:37:29;;;;;;;5.72;3.10;;;;;;;;;;5118272;28;20051;-82
2023/08/14 01:40:14;;;;;;;7.15;3.00;;;;;;;;;;5114668;28;20138;-81
2023/08/14 01:42:40;;;;;;;6.32;3.17;;;;;;;;;;5095428;28;20097;-82
2023/08/14 01:45:08;;;;;;;7.20;3.35;;;;;;;;;;5109336;28;20405;-81
2023/08/14 01:47:35;;;;;;;5.80;3.53;;;;;;;;;;5094984;28;20097;-82
2023/08/14 01:50:02;;;;;;;5.22;3.30;;;;;;;;;;5094786;28;20109;-82
2023/08/14 01:52:28;;;;;;;6.07;3.72;;;;;;;;;;5106801;28;20051;-82
2023/08/14 01:55:00;;;;;;;5.63;3.63;;;;;;;;;;5097281;28;20102;-82
2023/08/14 01:57:26;;;;;;;7.70;3.80;;;;;;;;;;5079989;28;20048;-82
2023/08/14 01:59:52;;;;;;;7.07;3.70;;;;;;;;;;5114263;28;20428;-82
2023/08/14 02:02:18;;;;;;;7.55;3.72;;;;;;;;;;5096208;28;20040;-82
2023/08/14 02:04:44;;;;;;;7.00;3.55;;;;;;;;;;5080373;28;20456;-82
2023/08/14 02:07:10;;;;;;;7.18;4.10;;;;;;;;;;5094545;28;20105;-81
2023/08/14 02:09:37;;;;;;;8.35;4.25;;;;;;;;;;5094477;28;20052;-82
2023/08/14 02:12:03;;;;;;;6.70;4.15;;;;;;;;;;5109111;28;20039;-81
2023/08/14 02:14:30;;;;;;;6.97;4.10;;;;;;;;;;5082746;28;20354;-82
2023/08/14 02:16:56;;;;;;;6.45;4.38;;;;;;;;;;5094568;28;20047;-82
2023/08/14 02:19:22;;;;;;;8.15;4.20;;;;;;;;;;5059649;28;20085;-82
2023/08/14 02:21:49;;;;;;;6.35;3.97;;;;;;;;;;5094343;28;20433;-82
2023/08/14 02:24:15;;;;;;;7.32;4.22;;;;;;;;;;5105581;28;20050;-82
2023/08/14 02:26:41;;;;;;;7.55;4.32;;;;;;;;;;5059876;28;1111113;-82
2023/08/14 02:29:07;;;;;;;8.68;4.53;;;;;;;;;;5095324;28;20078;-82
2023/08/14 02:31:34;;;;;;;6.38;4.20;;;;;;;;;;5076931;28;20044;-82
2023/08/14 02:34:00;;;;;;;7.95;4.72;;;;;;;;;;5069285;28;20075;-81
2023/08/14 02:36:28;;;;;;;9.32;4.93;;;;;;;;;;5115102;28;20533;-82
2023/08/14 02:38:54;;;;;;;6.88;4.70;;;;;;;;;;5115548;28;20127;-82
2023/08/14 02:41:21;;;;;;;8.52;5.00;;;;;;;;;;5114955;28;20070;-82
2023/08/14 02:43:47;;;;;;;8.85;4.97;;;;;;;;;;5089744;28;20050;-81
2023/08/14 02:46:13;;;;;;;10.82;5.68;;;;;;;;;;5093557;28;20040;-82
2023/08/14 02:48:40;;;;;;;10.05;6.35;;;;;;;;;;5098979;28;20142;-82
2023/08/14 02:51:06;;;;;;;11.75;6.18;;;;;;;;;;5094455;28;20162;-82
2023/08/14 02:53:32;;;;;;;8.77;6.07;;;;;;;;;;5088549;28;20395;-81
2023/08/14 02:55:58;;;;;;;10.20;5.93;;;;;;;;;;5093280;28;20039;-81
2023/08/14 02:58:24;;;;;;;11.18;6.55;;;;;;;;;;5114814;28;20055;-81
2023/08/14 03:00:50;;;;;;;10.07;6.65;;;;;;;;;;5109894;28;20463;-82
2023/08/14 03:03:17;;;;;;;8.95;7.00;;;;;;;;;;5086071;28;20373;-81
2023/08/14 03:05:44;;;;;;;10.57;6.60;;;;;;;;;;5098719;28;20044;-81
2023/08/14 03:08:10;;;;;;;11.35;7.18;;;;;;;;;;5076318;28;20132;-81
2023/08/14 03:10:36;;;;;;;10.98;7.20;;;;;;;;;;5078850;28;20051;-82
2023/08/14 03:13:03;;;;;;;9.45;7.53;;;;;;;;;;5107960;28;20119;-82
2023/08/14 03:15:29;;;;;;;12.27;7.80;;;;;;;;;;5095176;28;20121;-82
2023/08/14 03:17:55;;;;;;;11.20;7.32;;;;;;;;;;5060720;28;20044;-81
2023/08/14 03:20:21;;;;;;;12.00;7.70;;;;;;;;;;5087531;28;20130;-81
2023/08/14 03:22:47;;;;;;;10.40;7.88;;;;;;;;;;5075990;28;20127;-82
2023/08/14 03:25:13;;;;;;;11.48;7.78;;;;;;;;;;5066007;28;20043;-82
2023/08/14 03:27:40;;;;;;;11.88;8.00;;;;;;;;;;5114545;28;20057;-82
2023/08/14 03:30:06;;;;;;;12.45;8.18;;;;;;;;;;5114504;28;20440;-82
2023/08/14 03:32:32;;;;;;;11.40;8.05;;;;;;;;;;5114634;28;20044;-81
2023/08/14 03:34:58;;;;;;;9.73;7.57;;;;;;;;;;5114238;28;20043;-79
2023/08/14 03:37:24;;;;;;;10.50;7.97;;;;;;;;;;5088755;28;20416;-81
2023/08/14 03:39:51;;;;;;;12.88;7.90;;;;;;;;;;5093040;28;20489;-82
2023/08/14 03:42:17;;;;;;;10.38;7.70;;;;;;;;;;5093448;28;20048;-82
2023/08/14 03:44:43;;;;;;;11.85;8.40;;;;;;;;;;5095014;28;20050;-82
2023/08/14 03:47:09;;;;;;;12.60;8.40;;;;;;;;;;5104910;28;20043;-82
2023/08/14 03:49:35;;;;;;;11.80;8.63;;;;;;;;;;5094666;28;20131;-82
2023/08/14 03:52:01;;;;;;;12.77;8.50;;;;;;;;;;5075615;28;20083;-82
2023/08/14 03:54:27;;;;;;;13.43;8.63;;;;;;;;;;5093679;28;20067;-82
2023/08/14 03:56:53;;;;;;;13.95;8.90;;;;;;;;;;5093403;28;20048;-82
2023/08/14 03:59:19;;;;;;;12.32;9.20;;;;;;;;;;5093768;28;20396;-82
2023/08/14 04:01:45;;;;;;;14.48;9.27;;;;;;;;;;5075220;28;20040;-82
2023/08/14 04:04:12;;;;;;;12.07;9.32;;;;;;;;;;5082874;28;20044;-80
2023/08/14 04:06:38;;;;;;;11.52;9.18;;;;;;;;;;5093964;28;20087;-81
2023/08/14 04:09:05;;;;;;;14.30;9.25;;;;;;;;;;5101002;28;20043;-81
2023/08/14 04:11:32;;;;;;;12.52;9.80;;;;;;;;;;5113409;28;20062;-82
2023/08/14 04:13:59;;;;;;;11.55;10.35;;;;;;;;;;5095514;28;20109;-82
2023/08/14 04:16:41;;;;;;;11.95;10.13;;;;;;;;;;5113346;28;20096;-82
2023/08/14 04:19:07;;;;;;;13.02;8.90;;;;;;;;;;5095322;28;20055;-82
2023/08/14 04:21:33;;;;;;;12.02;9.25;;;;;;;;;;5113339;28;20123;-82
2023/08/14 04:23:59;;;;;;;12.10;8.80;;;;;;;;;;5113690;28;20169;-82
2023/08/14 04:26:26;;;;;;;12.10;9.20;;;;;;;;;;5112849;28;20459;-82
2023/08/14 04:28:52;;;;;;;14.68;8.90;;;;;;;;;;5113549;28;20050;-82
2023/08/14 04:31:18;;;;;;;11.90;9.00;;;;;;;;;;5113482;28;20043;-81
2023/08/14 04:33:44;;;;;;;13.05;9.55;;;;;;;;;;5113941;28;20039;-81
2023/08/14 04:36:10;;;;;;;13.02;9.07;;;;;;;;;;5112278;28;20127;-81
2023/08/14 04:38:36;;;;;;;11.07;8.90;;;;;;;;;;5093036;28;20051;-81
2023/08/14 04:41:02;;;;;;;15.68;9.10;;;;;;;;;;5092381;28;20124;-82
2023/08/14 04:43:31;;;;;;;12.48;9.07;;;;;;;;;;5074848;28;20079;-81
2023/08/14 04:45:58;;;;;;;13.35;9.00;;;;;;;;;;5098404;28;20168;-82
2023/08/14 04:48:24;;;;;;;13.20;9.02;;;;;;;;;;5094204;28;20067;-82
2023/08/14 04:50:50;;;;;;;13.40;9.50;;;;;;;;;;5075076;28;20040;-82
2023/08/14 04:53:17;;;;;;;12.60;9.43;;;;;;;;;;5094363;28;20051;-82
2023/08/14 04:55:43;;;;;;;12.35;9.43;;;;;;;;;;5089868;28;20154;-81
2023/08/14 04:58:09;;;;;;;14.05;9.18;;;;;;;;;;5074614;28;20404;-82
2023/08/14 05:00:35;;;;;;;12.02;8.65;;;;;;;;;;5093017;28;20043;-81
2023/08/14 05:03:02;;;;;;;11.95;8.48;;;;;;;;;;5079421;28;20047;-80
2023/08/14 05:05:28;;;;;;;12.30;8.77;;;;;;;;;;5102282;28;20086;-80
2023/08/14 05:07:54;;;;;;;14.02;8.77;;;;;;;;;;5100410;28;20074;-80
2023/08/14 05:10:20;;;;;;;13.60;8.82;;;;;;;;;;5074721;28;20400;-82
2023/08/14 05:12:46;;;;;;;15.45;8.82;;;;;;;;;;5073429;28;20192;-82
2023/08/14 05:15:12;;;;;;;12.35;8.35;;;;;;;;;;5090422;28;20048;-82
2023/08/14 05:17:38;;;;;;;12.35;8.60;;;;;;;;;;5074473;28;20048;-81
2023/08/14 05:20:05;;;;;;;10.73;8.57;;;;;;;;;;5074349;28;20138;-82
2023/08/14 05:22:31;;;;;;;11.65;8.48;;;;;;;;;;5080280;28;20065;-82
2023/08/14 05:24:58;;;;;;;11.65;7.95;;;;;;;;;;5074093;28;20044;-82
2023/08/14 05:27:24;;;;;;;11.80;8.18;;;;;;;;;;5092119;28;20098;-82
2023/08/14 05:29:50;;;;;;;12.23;8.40;;;;;;;;;;5092698;28;20048;-82
2023/08/14 05:32:16;;;;;;;13.13;8.38;;;;;;;;;;5092293;28;20135;-82
2023/08/14 05:34:43;;;;;;;10.73;8.13;;;;;;;;;;5092099;28;20456;-82
2023/08/14 05:37:09;;;;;;;9.95;7.47;;;;;;;;;;5092389;28;20044;-82
2023/08/14 05:39:35;;;;;;;11.18;7.57;;;;;;;;;;5092212;28;20044;-82
2023/08/14 05:42:01;;;;;;;12.20;7.38;;;;;;;;;;5073708;28;20131;-81
2023/08/14 05:44:27;;;;;;;12.77;7.97;;;;;;;;;;5092255;28;20048;-82
2023/08/14 05:46:54;;;;;;;15.38;8.05;;;;;;;;;;5073949;28;20036;-82
2023/08/14 05:49:21;;;;;;;12.40;8.10;;;;;;;;;;5074163;28;20483;-82
2023/08/14 05:51:47;;;;;;;10.30;7.45;;;;;;;;;;5073754;28;20127;-82
2023/08/14 05:54:14;;;;;;;10.38;7.13;;;;;;;;;;5106650;28;20044;-83
2023/08/14 05:56:40;;;;;;;15.57;7.53;;;;;;;;;;5090402;28;20043;-82
2023/08/14 05:59:06;;;;;;;10.82;7.10;;;;;;;;;;5094382;28;20522;-83
2023/08/14 06:01:33;;;;;;;10.85;7.40;;;;;;;;;;5093718;28;20043;-82
2023/08/14 06:04:00;;;;;;;10.80;6.60;;;;;;;;;;5097569;28;20058;-81
2023/08/14 06:06:26;;;;;;;12.18;7.22;;;;;;;;;;5115922;28;20085;-81
2023/08/14 06:08:52;;;;;;;11.52;7.55;;;;;;;;;;5114376;28;20052;-82
2023/08/14 06:11:18;;;;;;;14.40;7.28;;;;;;;;;;5110645;28;20341;-82
2023/08/14 06:13:45;;;;;;;15.90;7.47;;;;;;;;;;5098123;28;20552;-82
2023/08/14 06:16:12;;;;;;;12.80;7.22;;;;;;;;;;5079979;28;20423;-82
2023/08/14 06:18:38;;;;;;;11.32;7.25;;;;;;;;;;5115838;28;20054;-82
2023/08/14 06:21:04;;;;;;;11.32;7.40;;;;;;;;;;5115468;28;20044;-82
2023/08/14 06:23:30;;;;;;;12.70;7.40;;;;;;;;;;5096917;28;20151;-82
2023/08/14 06:25:58;;;;;;;11.43;7.15;;;;;;;;;;5096379;28;20052;-82
2023/08/14 06:28:24;;;;;;;13.27;7.60;;;;;;;;;;5116056;28;20062;-82
2023/08/14 06:30:50;;;;;;;11.55;7.07;;;;;;;;;;5115321;28;20534;-82
2023/08/14 06:33:16;;;;;;;10.50;7.10;;;;;;;;;;5115618;28;20133;-82
2023/08/14 06:35:42;;;;;;;12.57;7.15;;;;;;;;;;5094757;28;20041;-82
2023/08/14 06:38:08;;;;;;;10.43;7.03;;;;;;;;;;5115438;28;20118;-82
2023/08/14 06:40:34;;;;;;;10.48;7.10;;;;;;;;;;5096758;28;20048;-82
2023/08/14 06:43:02;;;;;;;11.02;7.10;;;;;;;;;;5115270;28;20046;-82
2023/08/14 06:45:29;;;;;;;12.10;6.53;;;;;;;;;;5114640;28;20047;-82
2023/08/14 06:47:55;;;;;;;15.30;7.90;;;;;;;;;;5097088;28;20122;-82
2023/08/14 06:50:21;;;;;;;11.43;7.00;;;;;;;;;;5093612;28;20044;-76
2023/08/14 06:52:47;;;;;;;10.05;6.78;;;;;;;;;;5098172;28;20039;-76
2023/08/14 06:55:13;;;;;;;13.05;6.78;;;;;;;;;;5114914;28;20087;-77
2023/08/14 06:57:39;;;;;;;12.73;6.90;;;;;;;;;;5096858;28;20035;-77
2023/08/14 07:00:12;;;;;;;11.05;6.65;;;;;;;;;;5114625;28;20142;-76
2023/08/14 07:02:39;;;;;;;12.27;6.97;;;;;;;;;;5095592;28;20151;-77
2023/08/14 07:05:05;;;;;;;9.50;6.38;;;;;;;;;;5102992;28;20048;-77
2023/08/14 07:07:31;;;;;;;8.32;6.00;;;;;;;;;;5080621;28;20039;-77
2023/08/14 07:09:57;;;;;;;12.05;6.80;;;;;;;;;;5083419;28;20464;-77
2023/08/14 07:12:24;;;;;;;10.20;6.80;;;;;;;;;;5076100;28;20404;-77
2023/08/14 07:14:50;;;;;;;10.60;6.00;;;;;;;;;;5094623;28;20373;-77
2023/08/14 07:17:16;;;;;;;11.27;6.63;;;;;;;;;;5093793;28;20040;-78
2023/08/14 07:19:42;;;;;;;12.70;6.32;;;;;;;;;;5075996;28;20065;-77
2023/08/14 07:22:08;;;;;;;9.43;5.82;;;;;;;;;;5089739;28;20035;-77
2023/08/14 07:24:34;;;;;;;13.32;6.75;;;;;;;;;;5095418;28;20039;-77
2023/08/14 07:27:01;;;;;;;9.93;5.80;;;;;;;;;;5110912;28;20043;-78
2023/08/14 07:29:27;;;;;;;9.13;6.22;;;;;;;;;;5113690;28;20399;-79
2023/08/14 07:31:53;;;;;;;10.90;5.60;;;;;;;;;;5109180;28;20176;-79
2023/08/14 07:34:19;;;;;;;11.90;6.22;;;;;;;;;;5111726;28;20134;-79
2023/08/14 07:36:45;;;;;;;9.25;5.28;;;;;;;;;;5084452;28;20035;-79
2023/08/14 07:39:12;;;;;;;11.10;5.35;;;;;;;;;;5113717;28;20097;-79
2023/08/14 07:41:38;;;;;;;12.25;5.32;;;;;;;;;;5100365;28;20044;-79
2023/08/14 07:44:04;;;;;;;9.40;5.22;;;;;;;;;;5075447;28;20048;-79
2023/08/14 07:46:30;;;;;;;9.93;5.15;;;;;;;;;;5093283;28;20075;-79
2023/08/14 07:48:56;;;;;;;13.15;5.90;;;;;;;;;;5075117;28;20188;-79
2023/08/14 07:51:22;;;;;;;9.27;5.57;;;;;;;;;;5092246;28;20047;-78
2023/08/14 07:53:48;;;;;;;11.77;5.35;;;;;;;;;;5075204;28;20488;-76
2023/08/14 07:56:14;;;;;;;13.23;5.45;;;;;;;;;;5092297;28;20042;-78
2023/08/14 07:58:41;;;;;;;9.93;4.72;;;;;;;;;;5075010;28;20040;-79
2023/08/14 08:01:08;;;;;;;10.18;5.05;;;;;;;;;;5075422;28;20040;-78
2023/08/14 08:03:34;;;;;;;9.38;5.20;;;;;;;;;;5075918;28;20055;-78
2023/08/14 08:06:00;;;;;;;10.77;4.90;;;;;;;;;;5093200;28;20105;-78
2023/08/14 08:08:26;;;;;;;11.60;5.40;;;;;;;;;;5093745;28;20047;-78
2023/08/14 08:10:52;;;;;;;8.57;4.82;;;;;;;;;;5075058;28;20051;-78
2023/08/14 08:13:18;;;;;;;13.18;5.68;;;;;;;;;;5093517;28;20040;-78
2023/08/14 08:15:44;;;;;;;10.57;5.00;;;;;;;;;;5091546;28;20059;-78
2023/08/14 08:18:10;;;;;;;10.10;4.95;;;;;;;;;;5093611;28;20058;-78
2023/08/14 08:20:37;;;;;;;11.80;5.20;;;;;;;;;;5096519;28;20115;-79
2023/08/14 08:23:03;;;;;;;11.98;5.45;;;;;;;;;;5085515;28;20083;-79
2023/08/14 08:25:30;;;;;;;9.63;5.60;;;;;;;;;;5074376;28;20131;-79
2023/08/14 08:27:56;;;;;;;10.07;5.28;;;;;;;;;;5079829;28;20097;-79
2023/08/14 08:30:22;;;;;;;10.35;5.45;;;;;;;;;;5087761;28;20115;-78
2023/08/14 08:32:48;;;;;;;11.38;5.32;;;;;;;;;;5100232;28;20131;-78
2023/08/14 08:35:15;;;;;;;14.80;4.82;;;;;;;;;;5090741;28;20377;-77
2023/08/14 08:37:41;;;;;;;11.40;4.80;;;;;;;;;;5100968;28;20060;-77
2023/08/14 08:40:08;;;;;;;8.13;4.28;;;;;;;;;;5076979;28;20058;-78
2023/08/14 08:42:34;;;;;;;9.45;4.40;;;;;;;;;;5105104;28;20088;-79
2023/08/14 08:45:04;;;;;;;10.55;4.13;;;;;;;;;;5093951;28;20036;-78
2023/08/14 08:47:31;;;;;;;8.88;3.80;;;;;;;;;;5092110;28;20047;-79
2023/08/14 08:49:59;;;;;;;11.25;4.22;;;;;;;;;;5093007;28;20081;-79
2023/08/14 08:52:25;;;;;;;8.40;3.80;;;;;;;;;;5092790;28;20109;-78
2023/08/14 08:54:52;;;;;;;7.00;3.60;;;;;;;;;;5093924;28;20085;-77
2023/08/14 08:57:18;;;;;;;8.38;3.90;;;;;;;;;;5098977;28;20043;-78
2023/08/14 08:59:45;;;;;;;9.95;3.75;;;;;;;;;;5091813;28;20083;-78
2023/08/14 09:02:11;;;;;;;6.90;3.80;;;;;;;;;;5112270;28;20123;-78
2023/08/14 09:04:38;;;;;;;9.88;4.10;;;;;;;;;;5105646;28;20123;-78
2023/08/14 09:07:04;;;;;;;10.68;3.72;;;;;;;;;;5077697;28;20057;-77
2023/08/14 09:09:30;;;;;;;7.63;3.45;;;;;;;;;;5073576;28;20055;-77
2023/08/14 09:11:56;;;;;;;10.38;3.75;;;;;;;;;;5091698;28;20052;-77
2023/08/14 09:14:23;;;;;;;6.40;2.75;;;;;;;;;;5092421;28;20050;-77
2023/08/14 09:16:53;;;;;;;8.27;2.80;;;;;;;;;;5091993;28;20036;-77
2023/08/14 09:19:19;;;;;;;7.03;2.33;;;;;;;;;;5091966;28;20063;-78
2023/08/14 09:21:45;;;;;;;8.80;2.30;;;;;;;;;;5091556;28;20047;-77
2023/08/14 09:24:14;;;;;;;5.78;2.20;;;;;;;;;;5074509;28;20135;-77
2023/08/14 09:26:42;;;;;;;5.40;2.30;;;;;;;;;;5092076;28;20056;-77
2023/08/14 09:29:09;;;;;;;7.50;2.40;;;;;;;;;;5092279;28;20044;-77
2023/08/14 09:31:35;;;;;;;6.13;2.40;;;;;;;;;;5092173;28;20051;-78
2023/08/14 09:34:02;;;;;;;7.85;2.30;;;;;;;;;;5092621;28;20047;-78
2023/08/14 09:36:33;;;;;;;7.38;2.47;;;;;;;;;;5073889;28;20047;-77
2023/08/14 09:39:00;;;;;;;5.75;2.15;;;;;;;;;;5096953;28;20141;-76
2023/08/14 09:41:26;;;;;;;8.52;2.40;;;;;;;;;;5099688;28;20044;-78
2023/08/14 09:43:53;;;;;;;4.68;1.85;;;;;;;;;;5093081;28;20125;-79
2023/08/14 09:46:19;;;;;;;5.85;2.00;;;;;;;;;;5093143;22;20053;-88
2023/08/14 09:48:47;;;;;;;5.18;2.00;;;;;;;;;;5051034;28;20052;-86
2023/08/14 09:51:14;;;;;;;6.65;1.83;;;;;;;;;;5051806;28;20500;-85
2023/08/14 09:53:50;;;;;;;6.70;1.88;;;;;;;;;;5050414;28;20041;-87
2023/08/14 09:56:20;;;;;;;5.65;1.80;;;;;;;;;;5032955;28;20037;-87
2023/08/14 09:58:50;;;;;;;4.93;1.80;;;;;;;;;;5052221;28;20055;-83
2023/08/14 10:01:17;;;;;;;7.68;1.92;;;;;;;;;;5050803;28;20273;-84
2023/08/14 10:03:46;;;;;;;6.32;1.90;;;;;;;;;;5035157;28;20044;-84
2023/08/14 10:06:13;;;;;;;7.07;1.85;;;;;;;;;;5032084;28;20048;-86
2023/08/14 10:08:53;;;;;;;3.30;1.60;;;;;;;;;;5015733;28;20076;-89
2023/08/14 15:29:52;;;;;;;8.85;2.10;;;;;;;;;;5098250;22;20071;-78
2023/08/14 15:32:18;;;;;;;4.90;2.03;;;;;;;;;;5053722;28;20475;-79
2023/08/14 15:34:45;;;;;;;4.47;1.80;;;;;;;;;;5052188;28;20127;-80
2023/08/14 15:37:11;;;;;;;5.30;2.05;;;;;;;;;;5053082;28;20071;-73
2023/08/14 15:39:37;;;;;;;5.47;1.90;;;;;;;;;;5036113;28;20067;-74
2023/08/14 15:42:04;;;;;;;6.78;2.08;;;;;;;;;;5053572;28;20041;-72
2023/08/14 15:44:30;;;;;;;4.78;1.92;;;;;;;;;;5053487;28;20088;-71
2023/08/14 15:46:57;;;;;;;6.00;2.35;;;;;;;;;;5050549;28;20371;-77
2023/08/14 15:49:23;;;;;;;6.75;2.00;;;;;;;;;;5053250;28;20041;-76
2023/08/14 15:51:49;;;;;;;4.82;2.10;;;;;;;;;;5052062;28;20041;-76
2023/08/14 15:54:15;;;;;;;5.15;2.03;;;;;;;;;;5051227;28;20095;-78
2023/08/14 15:56:42;;;;;;;4.78;1.90;;;;;;;;;;5052247;28;20045;-77
2023/08/14 15:59:08;;;;;;;5.22;2.00;;;;;;;;;;5053355;28;20454;-77
2023/08/14 16:01:34;;;;;;;6.95;2.10;;;;;;;;;;5052130;28;20041;-74
2023/08/14 16:04:00;;;;;;;6.68;2.15;;;;;;;;;;5052409;28;20057;-76
2023/08/14 16:06:26;;;;;;;5.43;1.95;;;;;;;;;;5017525;28;20079;-77
2023/08/14 16:08:53;;;;;;;8.30;2.03;;;;;;;;;;5052566;28;20157;-79
2023/08/14 16:11:19;;;;;;;4.40;1.70;;;;;;;;;;5034814;28;20462;-79
2023/08/14 16:13:45;;;;;;;6.53;2.22;;;;;;;;;;5035165;28;20132;-79
2023/08/14 16:16:11;;;;;;;4.55;1.90;;;;;;;;;;5052817;28;20055;-78
2023/08/14 16:18:38;;;;;;;6.07;2.10;;;;;;;;;;5033953;28;20095;-81
2023/08/14 16:21:04;;;;;;;4.95;1.90;;;;;;;;;;5047840;28;20041;-81
2023/08/14 16:23:30;;;;;;;5.25;2.03;;;;;;;;;;5050173;28;20533;-82
2023/08/14 16:25:56;;;;;;;5.25;1.88;;;;;;;;;;5049742;28;20437;-82
2023/08/14 16:28:23;;;;;;;4.75;2.00;;;;;;;;;;5049675;28;20508;-77
2023/08/14 16:30:49;;;;;;;6.88;2.33;;;;;;;;;;5031420;28;20064;-77
2023/08/14 16:33:15;;;;;;;7.20;2.30;;;;;;;;;;5066407;28;20053;-78
2023/08/14 16:35:42;;;;;;;5.05;2.05;;;;;;;;;;5069475;28;20141;-78
2023/08/14 16:38:08;;;;;;;5.05;1.80;;;;;;;;;;5059553;28;20080;-78
2023/08/14 16:40:41;;;;;;;6.15;2.10;;;;;;;;;;5049452;28;20431;-76
2023/08/14 16:43:07;;;;;;;6.75;2.40;;;;;;;;;;5032032;28;20041;-76
2023/08/14 16:45:33;;;;;;;4.65;2.03;;;;;;;;;;5047585;28;20041;-75
2023/08/14 16:47:59;;;;;;;7.95;2.08;;;;;;;;;;5049416;28;20055;-76
2023/08/14 16:50:25;;;;;;;7.38;2.30;;;;;;;;;;5048497;28;20128;-77
2023/08/14 16:52:52;;;;;;;6.28;2.20;;;;;;;;;;5048313;28;20049;-78
2023/08/14 16:55:18;;;;;;;8.13;2.13;;;;;;;;;;5047386;28;20051;-80
2023/08/14 16:57:45;;;;;;;6.32;2.22;;;;;;;;;;5049432;28;20109;-79
2023/08/14 17:00:14;;;;;;;5.43;2.10;;;;;;;;;;5048705;28;20055;-79
2023/08/14 17:02:40;;;;;;;5.18;2.03;;;;;;;;;;5049168;28;20505;-78
2023/08/14 17:05:07;;;;;;;5.22;2.10;;;;;;;;;;5037372;28;20076;-78
2023/08/14 17:07:33;;;;;;;4.80;1.88;;;;;;;;;;5027980;28;20128;-80
2023/08/14 17:09:59;;;;;;;6.05;2.15;;;;;;;;;;5040022;28;20048;-81
2023/08/14 17:12:25;;;;;;;3.83;1.88;;;;;;;;;;5052608;28;20092;-80
2023/08/14 17:14:52;;;;;;;3.97;1.90;;;;;;;;;;5051977;28;20108;-81
2023/08/14 17:17:18;;;;;;;5.90;2.30;;;;;;;;;;5052339;28;20119;-81
2023/08/14 17:19:44;;;;;;;8.00;2.20;;;;;;;;;;5051400;28;20048;-80
2023/08/14 17:22:10;;;;;;;6.75;2.17;;;;;;;;;;5052434;28;20037;-81
2023/08/14 17:24:37;;;;;;;6.68;2.10;;;;;;;;;;5051202;28;20049;-79
2023/08/14 17:27:03;;;;;;;5.28;2.10;;;;;;;;;;5051649;28;20486;-78
2023/08/14 17:29:29;;;;;;;5.57;2.17;;;;;;;;;;5051411;28;20378;-79
2023/08/14 17:31:55;;;;;;;7.47;2.20;;;;;;;;;;5021455;28;20058;-79
2023/08/14 17:34:22;;;;;;;6.75;2.25;;;;;;;;;;5011751;28;20041;-82
2023/08/14 17:36:48;;;;;;;6.05;2.20;;;;;;;;;;5013577;28;20046;-81
2023/08/14 17:39:15;;;;;;;5.50;2.10;;;;;;;;;;5014055;28;20081;-79
2023/08/14 17:41:41;;;;;;;6.85;2.20;;;;;;;;;;5011501;28;20116;-79
2023/08/14 17:44:10;;;;;;;5.03;2.42;;;;;;;;;;5011525;28;20046;-79
2023/08/14 17:46:36;;;;;;;7.05;2.33;;;;;;;;;;5010054;28;20045;-80
2023/08/14 17:49:02;;;;;;;6.13;2.03;;;;;;;;;;5022682;28;20045;-80
2023/08/14 17:51:28;;;;;;;6.30;2.10;;;;;;;;;;5032260;28;20132;-80
2023/08/14 17:53:54;;;;;;;7.03;2.20;;;;;;;;;;5018231;28;20052;-79
2023/08/14 17:56:20;;;;;;;5.53;2.20;;;;;;;;;;5011938;28;20125;-78
2023/08/14 17:58:46;;;;;;;8.32;2.22;;;;;;;;;;5013137;28;20568;-79
2023/08/14 18:01:13;;;;;;;6.28;2.28;;;;;;;;;;5015837;28;20398;-79
2023/08/14 18:03:39;;;;;;;4.65;2.20;;;;;;;;;;5014197;28;20463;-78
2023/08/14 18:06:05;;;;;;;5.85;2.35;;;;;;;;;;5021047;28;20046;-77
2023/08/14 18:08:31;;;;;;;7.13;2.50;;;;;;;;;;5032304;28;20417;-77
2023/08/14 18:11:01;;;;;;;8.38;2.35;;;;;;;;;;5019452;28;20046;-78
2023/08/14 18:13:27;;;;;;;6.25;2.25;;;;;;;;;;5015246;28;20435;-79
2023/08/14 18:15:53;;;;;;;5.60;2.45;;;;;;;;;;5027576;28;20041;-79
2023/08/14 18:18:19;;;;;;;8.65;2.42;;;;;;;;;;5035552;28;20406;-78
2023/08/14 18:20:50;;;;;;;8.23;2.40;;;;;;;;;;5013816;28;20038;-79
2023/08/14 18:23:16;;;;;;;8.70;2.58;;;;;;;;;;5014258;28;20070;-79
2023/08/14 18:25:42;;;;;;;7.95;2.65;;;;;;;;;;5016601;28;20116;-78
2023/08/14 18:28:09;;;;;;;6.07;2.50;;;;;;;;;;5032331;28;20153;-77
2023/08/14 18:30:35;;;;;;;7.53;2.30;;;;;;;;;;5031710;28;20148;-77
2023/08/14 18:33:01;;;;;;;5.63;2.20;;;;;;;;;;5031942;28;20532;-78
2023/08/14 18:35:27;;;;;;;6.28;2.30;;;;;;;;;;5013818;28;20375;-77
2023/08/14 18:37:53;;;;;;;6.85;2.40;;;;;;;;;;5031970;28;20124;-77
2023/08/14 18:40:19;;;;;;;8.27;2.47;;;;;;;;;;5031796;28;20091;-79
2023/08/14 18:42:45;;;;;;;7.13;2.85;;;;;;;;;;5031939;28;20049;-77
2023/08/14 18:45:12;;;;;;;6.53;2.58;;;;;;;;;;5014015;28;20092;-78
2023/08/14 18:47:38;;;;;;;6.93;2.38;;;;;;;;;;5014218;28;20041;-78
2023/08/14 18:50:04;;;;;;;9.70;2.88;;;;;;;;;;5031686;28;20045;-78
2023/08/14 18:52:31;;;;;;;6.53;2.60;;;;;;;;;;5013926;28;20045;-77
2023/08/14 18:54:57;;;;;;;7.53;3.00;;;;;;;;;;5013793;28;20430;-78
2023/08/14 18:57:23;;;;;;;8.20;2.72;;;;;;;;;;5012990;28;20530;-78
2023/08/14 18:59:49;;;;;;;6.60;2.80;;;;;;;;;;5013818;28;20041;-79
2023/08/14 19:02:15;;;;;;;7.50;2.90;;;;;;;;;;5029914;28;20045;-79
2023/08/14 19:04:42;;;;;;;6.20;2.70;;;;;;;;;;5031034;28;20038;-78
2023/08/14 19:07:08;;;;;;;6.30;3.20;;;;;;;;;;5031729;28;20049;-78
2023/08/14 19:09:35;;;;;;;8.10;2.90;;;;;;;;;;5031731;28;20045;-79
2023/08/14 19:12:02;;;;;;;8.70;2.90;;;;;;;;;;5031573;28;20057;-78
2023/08/14 19:14:28;;;;;;;4.57;2.78;;;;;;;;;;5031109;28;20049;-76
2023/08/14 19:16:54;;;;;;;7.03;2.80;;;;;;;;;;5030685;28;20049;-77
2023/08/14 19:19:20;;;;;;;7.88;2.70;;;;;;;;;;5031595;28;20128;-77
2023/08/14 19:21:46;;;;;;;6.30;3.15;;;;;;;;;;5030658;28;20042;-77
2023/08/14 19:24:12;;;;;;;5.13;2.72;;;;;;;;;;5031129;28;20058;-77
2023/08/14 19:26:38;;;;;;;8.13;2.70;;;;;;;;;;5030659;28;20037;-77
2023/08/14 19:29:04;;;;;;;6.80;3.00;;;;;;;;;;5013434;28;20715;-77
2023/08/14 19:31:30;;;;;;;8.60;2.78;;;;;;;;;;5029535;28;20094;-79
2023/08/14 19:34:01;;;;;;;6.97;2.80;;;;;;;;;;5013736;28;20498;-85
2023/08/14 19:36:27;;;;;;;8.50;2.88;;;;;;;;;;5031043;28;20053;-85
2023/08/14 19:38:54;;;;;;;9.48;2.97;;;;;;;;;;5013887;28;20161;-85
2023/08/14 19:41:20;;;;;;;5.85;2.80;;;;;;;;;;5013453;28;20049;-85
2023/08/14 19:43:46;;;;;;;6.63;3.05;;;;;;;;;;4998019;28;20406;-87
2023/08/14 19:46:13;;;;;;;6.60;2.72;;;;;;;;;;4997451;28;20477;-86
2023/08/14 19:48:39;;;;;;;8.48;3.22;;;;;;;;;;5013881;28;20456;-85
2023/08/14 19:51:05;;;;;;;7.35;3.10;;;;;;;;;;5013630;28;20072;-86
2023/08/14 19:53:31;;;;;;;5.85;3.00;;;;;;;;;;5013785;28;20054;-86